Time;durP1;ratioP1;P1;durP2;ratioP2;P2;SDS_P1;SDS_P2;PMS_P1;PMS_P2;Temp;Humidity;BMP_temperature;BMP_pressure;BME280_temperature;BME280_humidity;BME280_pressure;Samples;Min_cycle;Max_cycle;Signal;HPM_P1;HPM_P2
2022/03/15 00:01:50;;;;;;;3.50;1.97;;;;;;;5.50;84.40;100418.50;8286237;28;20049;-72
2022/03/15 00:05:52;;;;;;;4.13;1.73;;;;;;;5.53;84.38;100425.44;8251365;28;20092;-72
2022/03/15 00:09:54;;;;;;;3.97;1.90;;;;;;;5.56;83.88;100433.25;8287998;28;20128;-72
2022/03/15 00:13:57;;;;;;;7.00;2.00;;;;;;;5.61;83.72;100434.31;8286193;28;20697;-72
2022/03/15 00:17:59;;;;;;;2.80;1.40;;;;;;;5.63;83.18;100427.50;8284080;28;20064;-72
2022/03/15 00:22:04;;;;;;;1.67;1.48;;;;;;;5.69;83.24;100431.13;8275183;28;20157;-72
2022/03/15 00:26:06;;;;;;;3.47;1.60;;;;;;;5.72;82.85;100428.66;8287219;28;20145;-71
2022/03/15 00:30:08;;;;;;;;;;;;;;;5.64;82.72;100424.09;8283669;28;20060;-72
2022/03/15 00:34:10;;;;;;;4.87;1.27;;;;;;;5.61;83.08;100421.44;8657820;22;19932;-71
2022/03/15 00:38:12;;;;;;;3.05;1.38;;;;;;;5.63;83.16;100418.06;8317578;28;20049;-71
2022/03/15 00:42:13;;;;;;;3.33;1.50;;;;;;;5.63;82.98;100412.91;8316298;28;20055;-72
2022/03/15 00:46:15;;;;;;;2.97;1.43;;;;;;;5.61;83.10;100417.16;8332576;28;20060;-71
2022/03/15 00:50:16;;;;;;;3.73;1.80;;;;;;;5.55;83.22;100411.78;8338468;28;20056;-71
2022/03/15 00:54:18;;;;;;;4.67;1.70;;;;;;;5.48;83.18;100417.56;8332561;28;20173;-71
2022/03/15 00:58:19;;;;;;;2.83;1.80;;;;;;;5.40;82.95;100417.34;8330327;28;20147;-71
2022/03/15 01:02:21;;;;;;;2.30;1.67;;;;;;;5.35;82.92;100408.56;8317635;28;20061;-71
2022/03/15 01:06:22;;;;;;;2.70;1.60;;;;;;;5.32;83.42;100405.91;8332487;28;20118;-71
2022/03/15 01:10:24;;;;;;;3.63;2.20;;;;;;;5.30;84.01;100394.66;8317466;28;20045;-71
2022/03/15 01:14:27;;;;;;;3.30;2.27;;;;;;;5.33;84.10;100402.50;8330505;28;20323;-71
2022/03/15 01:18:30;;;;;;;4.27;2.23;;;;;;;5.36;84.17;100394.84;8330520;28;20057;-71
2022/03/15 01:22:31;;;;;;;3.47;2.25;;;;;;;5.43;84.51;100383.94;8334426;28;20051;-71
2022/03/15 01:26:33;;;;;;;3.03;1.93;;;;;;;5.44;84.05;100377.09;8315463;28;20053;-71
2022/03/15 01:30:35;;;;;;;3.53;2.10;;;;;;;5.43;84.10;100383.94;8306815;28;20130;-71
2022/03/15 01:34:37;;;;;;;4.47;1.85;;;;;;;5.42;84.56;100366.75;8336226;28;20103;-71
2022/03/15 01:38:39;;;;;;;4.20;1.90;;;;;;;5.46;84.23;100372.88;8318363;28;20100;-71
2022/03/15 01:42:41;;;;;;;3.03;2.17;;;;;;;5.50;84.35;100372.13;8334225;28;20049;-71
2022/03/15 01:46:44;;;;;;;4.18;1.90;;;;;;;5.53;83.99;100372.22;8314417;28;20132;-71
2022/03/15 01:50:45;;;;;;;;;;;;;;;5.68;83.46;100372.69;8334973;28;20041;-71
2022/03/15 01:54:47;;;;;;;4.87;1.73;;;;;;;5.69;83.60;100377.03;8333700;28;20027;-71
2022/03/15 01:58:48;;;;;;;2.73;1.80;;;;;;;5.71;83.42;100372.78;8334733;28;20056;-71
2022/03/15 02:02:50;;;;;;;2.70;1.50;;;;;;;5.72;83.71;100374.53;8328202;28;20067;-71
2022/03/15 02:07:07;;;;;;;3.58;2.20;;;;;;;5.69;83.54;100366.72;8337299;28;20136;-71
2022/03/15 02:11:08;;;;;;;2.30;2.10;;;;;;;5.71;84.09;100369.34;8330215;28;20045;-71
2022/03/15 02:15:10;;;;;;;3.00;1.23;;;;;;;5.70;84.08;100368.47;8327647;28;20080;-72
2022/03/15 02:19:12;;;;;;;3.73;1.53;;;;;;;5.75;84.36;100363.47;8330936;28;20289;-71
2022/03/15 02:23:16;;;;;;;;;;;;;;;5.74;85.03;100383.22;8336008;28;20389;-71
2022/03/15 02:27:21;;;;;;;3.33;1.50;;;;;;;5.79;84.93;100370.47;8335633;28;20008;-71
2022/03/15 02:31:22;;;;;;;3.93;1.63;;;;;;;5.84;85.07;100374.06;8331935;28;20053;-71
2022/03/15 02:35:24;;;;;;;2.53;1.50;;;;;;;5.95;84.32;100377.00;8335122;28;20114;-71
2022/03/15 02:39:25;;;;;;;3.53;1.33;;;;;;;5.99;83.83;100361.66;8326141;28;20045;-71
2022/03/15 02:43:27;;;;;;;2.30;1.35;;;;;;;6.02;83.61;100356.59;8332303;28;20053;-71
2022/03/15 02:47:29;;;;;;;1.23;1.13;;;;;;;6.07;82.90;100343.81;8313188;28;20069;-71
2022/03/15 02:51:32;;;;;;;2.13;1.10;;;;;;;6.11;82.63;100339.66;8309577;28;20067;-71
2022/03/15 02:55:34;;;;;;;4.57;1.37;;;;;;;6.15;82.31;100341.47;8315280;28;20131;-71
2022/03/15 02:59:37;;;;;;;4.40;1.63;;;;;;;6.17;82.39;100350.13;8334113;28;20045;-71
2022/03/15 03:03:39;;;;;;;2.63;1.50;;;;;;;6.19;82.52;100343.31;8335658;28;20067;-71
2022/03/15 03:07:41;;;;;;;3.83;1.80;;;;;;;6.28;82.00;100353.88;8337549;28;20103;-71
2022/03/15 03:11:42;;;;;;;2.33;1.90;;;;;;;6.31;82.08;100339.38;8334486;28;20040;-71
2022/03/15 03:15:44;;;;;;;2.27;1.77;;;;;;;6.35;81.85;100353.22;8314941;28;20068;-71
2022/03/15 03:19:46;;;;;;;3.57;1.40;;;;;;;6.33;82.09;100353.19;8342811;28;20059;-72
2022/03/15 03:23:47;;;;;;;1.75;1.38;;;;;;;6.39;81.85;100349.03;8336488;28;20132;-71
2022/03/15 03:27:49;;;;;;;6.63;1.50;;;;;;;6.40;81.46;100349.06;8341895;28;20607;-72
2022/03/15 03:31:50;;;;;;;3.33;1.80;;;;;;;6.43;81.72;100332.78;8329480;28;20148;-71
2022/03/15 03:35:52;;;;;;;3.60;2.00;;;;;;;6.49;80.37;100349.34;8321058;28;20061;-71
2022/03/15 03:39:54;;;;;;;3.23;1.50;;;;;;;6.46;81.27;100326.00;8340090;28;20758;-71
2022/03/15 03:43:55;;;;;;;10.97;3.43;;;;;;;6.45;80.63;100337.16;8339436;28;20408;-71
2022/03/15 03:47:56;;;;;;;3.17;1.77;;;;;;;6.40;81.58;100337.88;8315730;28;20069;-71
2022/03/15 03:51:59;;;;;;;5.50;2.27;;;;;;;6.39;82.01;100347.31;8319317;28;20057;-71
2022/03/15 03:56:00;;;;;;;5.38;2.17;;;;;;;6.33;82.49;100336.84;8339447;28;20446;-71
2022/03/15 04:00:03;;;;;;;4.27;2.43;;;;;;;6.27;83.44;100332.38;8338773;28;20342;-71
2022/03/15 04:04:06;;;;;;;5.33;2.60;;;;;;;6.25;83.64;100330.59;8334556;28;20061;-71
2022/03/15 04:08:07;;;;;;;4.90;2.47;;;;;;;6.21;83.92;100323.59;8315034;28;20063;-71
2022/03/15 04:12:09;;;;;;;4.07;2.60;;;;;;;6.13;84.05;100317.38;8336260;28;20097;-71
2022/03/15 04:16:10;;;;;;;4.67;2.40;;;;;;;6.12;83.96;100313.91;8333781;28;20053;-71
2022/03/15 04:20:12;;;;;;;6.07;2.73;;;;;;;6.09;84.76;100302.63;8341716;28;20537;-71
2022/03/15 04:24:14;;;;;;;3.80;2.37;;;;;;;6.01;84.63;100300.72;8339279;28;20053;-71
2022/03/15 04:28:16;;;;;;;2.70;2.42;;;;;;;5.98;85.05;100299.75;8338763;28;20058;-71
2022/03/15 04:32:18;;;;;;;6.67;2.80;;;;;;;5.95;85.40;100294.50;8334206;28;20095;-71
2022/03/15 04:36:20;;;;;;;4.43;2.25;;;;;;;5.95;84.78;100291.94;8339447;28;20531;-71
2022/03/15 04:40:21;;;;;;;3.57;2.17;;;;;;;5.92;85.41;100289.25;8340046;28;20401;-71
2022/03/15 04:44:23;;;;;;;2.80;1.77;;;;;;;5.90;85.25;100283.19;8338509;28;20766;-71
2022/03/15 04:48:24;;;;;;;3.10;2.17;;;;;;;5.82;85.73;100282.06;8335257;28;20164;-71
2022/03/15 04:52:26;;;;;;;4.03;2.20;;;;;;;5.84;85.38;100273.53;8316555;28;20132;-71
2022/03/15 04:56:28;;;;;;;4.53;2.77;;;;;;;5.88;86.07;100277.06;8337455;28;20156;-71
2022/03/15 05:00:29;;;;;;;5.70;2.35;;;;;;;5.87;86.08;100286.50;8337994;28;20041;-71
2022/03/15 05:04:32;;;;;;;3.70;2.47;;;;;;;5.88;85.90;100275.38;8319679;28;20448;-71
2022/03/15 05:08:33;;;;;;;;;;;;;;;5.86;85.61;100279.63;8343539;28;20085;-71
2022/03/15 05:12:36;;;;;;;4.13;2.17;;;;;;;5.86;85.53;100268.44;8337051;28;19964;-71
2022/03/15 05:16:37;;;;;;;5.78;2.67;;;;;;;5.84;85.13;100264.94;8335467;28;20053;-71
2022/03/15 05:20:39;;;;;;;5.23;2.40;;;;;;;5.85;85.38;100240.91;8336663;28;20077;-72
2022/03/15 05:24:41;;;;;;;5.85;2.53;;;;;;;5.87;85.20;100253.00;8314744;28;20084;-71
2022/03/15 05:28:44;;;;;;;5.20;2.17;;;;;;;5.85;84.86;100258.94;8316854;28;20343;-71
2022/03/15 05:32:45;;;;;;;6.32;2.58;;;;;;;5.87;85.15;100263.31;8336792;28;20754;-71
2022/03/15 05:36:48;;;;;;;5.40;2.10;;;;;;;5.80;85.48;100253.69;8338343;28;20335;-71
2022/03/15 05:40:49;;;;;;;4.80;2.33;;;;;;;5.83;85.51;100247.72;8337904;28;20439;-72
2022/03/15 05:44:51;;;;;;;4.20;2.10;;;;;;;5.83;85.70;100263.19;8340006;28;20700;-72
2022/03/15 05:48:53;;;;;;;3.03;1.80;;;;;;;5.79;86.07;100254.50;8333391;28;20504;-72
2022/03/15 05:52:55;;;;;;;3.75;2.00;;;;;;;5.81;85.63;100262.28;8314825;28;20049;-72
2022/03/15 05:56:56;;;;;;;4.00;2.27;;;;;;;5.75;85.76;100253.56;8319380;28;20140;-72
2022/03/15 06:00:58;;;;;;;3.30;1.70;;;;;;;5.76;85.49;100262.16;8320873;28;20060;-72
2022/03/15 06:04:59;;;;;;;4.00;1.90;;;;;;;5.76;86.02;100247.56;8336854;28;20122;-71
2022/03/15 06:09:01;;;;;;;3.30;1.93;;;;;;;5.77;85.96;100256.16;8320438;28;20045;-71
2022/03/15 06:13:03;;;;;;;3.87;2.30;;;;;;;5.76;86.02;100246.69;8333262;28;20041;-72
2022/03/15 06:17:04;;;;;;;5.80;2.10;;;;;;;5.78;85.42;100244.16;8327464;28;20050;-71
2022/03/15 06:21:06;;;;;;;4.35;2.20;;;;;;;5.79;86.17;100244.19;8333466;28;20352;-71
2022/03/15 06:25:09;;;;;;;3.17;2.00;;;;;;;5.85;85.76;100246.06;8337942;28;20045;-72
2022/03/15 06:29:14;;;;;;;2.47;2.27;;;;;;;5.86;85.54;100251.25;8324639;28;20053;-72
2022/03/15 06:33:16;;;;;;;3.50;2.13;;;;;;;5.87;85.70;100239.25;8327668;28;20136;-72
2022/03/15 06:37:18;;;;;;;3.70;2.43;;;;;;;5.86;85.71;100227.19;8333717;28;20075;-72
2022/03/15 06:41:20;;;;;;;;;;;;;;;5.91;85.43;100221.34;8336361;28;20049;-72
2022/03/15 06:45:23;;;;;;;3.57;1.80;;;;;;;5.92;85.79;100233.41;8319057;28;19935;-72
2022/03/15 06:49:24;;;;;;;4.53;1.93;;;;;;;5.91;85.67;100216.22;8325648;28;20057;-72
2022/03/15 06:53:26;;;;;;;3.22;1.92;;;;;;;5.96;85.63;100212.06;8331646;28;20045;-72
2022/03/15 06:57:28;;;;;;;4.20;2.50;;;;;;;5.98;86.31;100205.25;8318826;28;20801;-71
2022/03/15 07:01:30;;;;;;;5.07;2.30;;;;;;;5.96;86.53;100203.47;8332067;28;20159;-70
2022/03/15 07:05:32;;;;;;;3.72;1.88;;;;;;;6.00;86.73;100200.13;8337482;28;20065;-71
2022/03/15 07:09:34;;;;;;;5.70;2.50;;;;;;;6.05;87.89;100199.41;8317751;28;20057;-72
2022/03/15 07:13:35;;;;;;;6.10;3.10;;;;;;;6.08;88.06;100198.63;8334676;28;20145;-71
2022/03/15 07:17:37;;;;;;;4.13;2.43;;;;;;;6.13;88.06;100204.78;8322732;28;20072;-71
2022/03/15 07:21:39;;;;;;;3.25;2.60;;;;;;;6.16;88.42;100207.44;8312413;28;20049;-72
2022/03/15 07:25:41;;;;;;;3.10;1.90;;;;;;;6.20;89.35;100205.81;8312295;28;20073;-72
2022/03/15 07:29:42;;;;;;;4.03;1.90;;;;;;;6.24;89.54;100193.03;8328507;28;20059;-71
2022/03/15 07:33:43;;;;;;;3.90;2.37;;;;;;;6.29;89.69;100172.53;8318659;28;20105;-71
2022/03/15 07:37:50;;;;;;;4.03;1.73;;;;;;;6.34;89.91;100171.81;8300466;28;20160;-71
2022/03/15 07:41:51;;;;;;;3.83;1.97;;;;;;;6.42;89.66;100173.69;8318146;28;20428;-71
2022/03/15 07:45:54;;;;;;;3.83;1.60;;;;;;;6.50;89.22;100169.63;8299336;28;20119;-70
2022/03/15 07:49:55;;;;;;;2.22;1.58;;;;;;;6.55;89.08;100171.47;8320900;28;20060;-70
2022/03/15 07:53:57;;;;;;;3.27;1.70;;;;;;;6.59;88.56;100150.06;8328698;28;20063;-70
2022/03/15 07:57:58;;;;;;;2.60;1.97;;;;;;;6.64;88.26;100140.75;8329167;28;20140;-70
2022/03/15 08:02:00;;;;;;;5.43;1.63;;;;;;;6.66;88.19;100133.03;8310977;28;20543;-70
2022/03/15 08:06:01;;;;;;;4.67;1.63;;;;;;;6.65;87.83;100146.78;8336684;28;20064;-70
2022/03/15 08:10:08;;;;;;;5.87;1.67;;;;;;;6.66;87.72;100143.34;8327286;28;20049;-70
2022/03/15 08:14:09;;;;;;;4.37;1.83;;;;;;;6.68;87.46;100140.81;8327036;28;20049;-70
2022/03/15 08:18:12;;;;;;;3.30;1.53;;;;;;;6.67;86.84;100134.78;8306492;28;20053;-70
2022/03/15 08:22:13;;;;;;;2.17;1.40;;;;;;;6.69;86.81;100130.50;8324190;28;20128;-70
2022/03/15 08:26:15;;;;;;;6.53;3.03;;;;;;;6.70;86.78;100118.47;8309545;28;20064;-70
2022/03/15 08:30:17;;;;;;;3.10;1.93;;;;;;;6.69;87.08;100117.63;8313739;28;20509;-70
2022/03/15 08:34:18;;;;;;;3.80;2.17;;;;;;;6.72;87.46;100115.09;8300202;28;20046;-69
2022/03/15 08:38:20;;;;;;;6.83;4.03;;;;;;;6.75;87.52;100098.81;8316816;28;20055;-70
2022/03/15 08:42:21;;;;;;;4.27;2.63;;;;;;;6.79;88.05;100106.63;8317314;28;20047;-70
2022/03/15 08:46:23;;;;;;;3.57;1.90;;;;;;;6.79;88.27;100092.88;8314940;28;20386;-69
2022/03/15 08:50:25;;;;;;;2.77;1.57;;;;;;;6.81;88.07;100088.59;8318777;28;20776;-70
2022/03/15 08:54:27;;;;;;;3.47;1.75;;;;;;;6.81;88.26;100089.47;8299558;28;20136;-69
2022/03/15 08:58:28;;;;;;;4.38;2.17;;;;;;;6.82;88.45;100087.75;8336058;28;20050;-69
2022/03/15 09:02:30;;;;;;;4.10;2.03;;;;;;;6.83;88.35;100082.66;8334672;28;20068;-69
2022/03/15 09:06:32;;;;;;;4.53;1.65;;;;;;;6.82;88.20;100074.84;8341109;28;20441;-70
2022/03/15 09:10:33;;;;;;;3.00;1.70;;;;;;;6.83;88.21;100074.91;8328020;28;20389;-70
2022/03/15 09:14:36;;;;;;;3.70;1.87;;;;;;;6.84;88.66;100076.66;8327157;28;20152;-69
2022/03/15 09:18:37;;;;;;;6.20;2.55;;;;;;;6.84;88.65;100066.34;8309166;28;20057;-70
2022/03/15 09:22:39;;;;;;;2.83;1.70;;;;;;;6.85;88.78;100067.22;8310713;28;20517;-71
2022/03/15 09:26:41;;;;;;;4.40;1.60;;;;;;;6.83;88.95;100059.44;8320649;28;20063;-70
2022/03/15 09:30:46;;;;;;;4.07;2.37;;;;;;;6.84;89.14;100040.53;8300720;28;20061;-70
2022/03/15 09:34:47;;;;;;;3.20;1.87;;;;;;;6.86;88.86;100040.56;8323136;28;20061;-71
2022/03/15 09:38:49;;;;;;;6.73;2.40;;;;;;;6.89;88.92;100033.75;8325300;28;20115;-70
2022/03/15 09:42:57;;;;;;;7.60;3.07;;;;;;;6.92;89.46;100038.97;8335460;28;20049;-70
2022/03/15 09:47:01;;;;;;;4.87;2.70;;;;;;;6.97;89.88;100021.84;8324140;28;20290;-70
2022/03/15 09:51:08;;;;;;;7.33;3.17;;;;;;;7.00;90.08;100007.25;8334168;28;20103;-70
2022/03/15 09:55:11;;;;;;;5.03;2.83;;;;;;;7.05;90.19;99990.16;8330134;28;20349;-69
2022/03/15 09:59:18;;;;;;;4.73;2.73;;;;;;;7.08;90.07;99990.22;8335875;28;20088;-70
2022/03/15 10:03:21;;;;;;;4.13;2.00;;;;;;;7.07;90.07;99979.00;8323836;28;20547;-70
2022/03/15 10:07:23;;;;;;;4.97;2.00;;;;;;;7.07;90.19;99975.56;8332631;28;20049;-70
2022/03/15 10:11:24;;;;;;;4.27;1.77;;;;;;;7.09;90.56;99979.03;8332521;28;20056;-70
2022/03/15 10:15:26;;;;;;;2.63;1.83;;;;;;;7.11;90.48;99964.44;8328300;28;20052;-70
2022/03/15 10:19:29;;;;;;;5.90;2.58;;;;;;;7.19;90.61;99960.31;8333711;28;20053;-70
2022/03/15 10:23:37;;;;;;;5.47;2.00;;;;;;;7.30;90.86;99950.16;8335284;28;20743;-70
2022/03/15 10:27:39;;;;;;;5.50;2.10;;;;;;;7.43;91.01;99936.63;8334848;28;20064;-72
2022/03/15 10:31:42;;;;;;;2.70;1.98;;;;;;;7.50;91.11;99941.91;8325780;28;20175;-72
2022/03/15 10:35:46;;;;;;;4.57;1.90;;;;;;;7.55;91.13;99947.16;8325099;28;20115;-72
2022/03/15 10:39:48;;;;;;;3.90;1.75;;;;;;;7.61;90.49;99936.03;8324541;28;20640;-72
2022/03/15 10:43:53;;;;;;;5.82;3.33;;;;;;;7.64;90.59;99926.63;8321586;28;20058;-71
2022/03/15 10:47:55;;;;;;;6.93;3.45;;;;;;;7.72;90.99;99911.22;8316435;28;20057;-71
2022/03/15 10:51:56;;;;;;;2.53;2.00;;;;;;;7.83;91.28;99913.13;8302228;28;20046;-70
2022/03/15 10:56:22;;;;;;;2.90;2.50;;;;;;;7.89;91.05;99909.75;8321273;28;20872;-71
2022/03/15 11:00:27;;;;;;;3.78;2.63;;;;;;;7.99;91.67;99890.97;8324052;28;20054;-71
2022/03/15 11:04:29;;;;;;;4.28;2.97;;;;;;;8.02;91.66;99885.81;8315903;28;20112;-71
2022/03/15 11:08:30;;;;;;;4.40;2.30;;;;;;;8.07;91.31;99888.47;8319960;28;20056;-70
2022/03/15 11:12:33;;;;;;;2.95;1.63;;;;;;;8.08;90.84;99892.81;8315197;28;20163;-70
2022/03/15 11:16:37;;;;;;;2.83;2.55;;;;;;;8.08;91.20;99893.69;8292670;28;20084;-71
2022/03/15 11:20:41;;;;;;;3.60;1.88;;;;;;;8.09;90.93;99892.84;8316550;28;20056;-72
2022/03/15 11:25:04;;;;;;;3.85;1.88;;;;;;;8.13;90.94;99891.16;8315215;28;20092;-72
2022/03/15 11:29:06;;;;;;;2.90;1.75;;;;;;;8.23;91.14;99864.53;8324111;28;20055;-70
2022/03/15 11:33:09;;;;;;;2.40;2.20;;;;;;;8.36;91.56;99861.28;8327714;28;20059;-70
2022/03/15 11:37:12;;;;;;;2.40;1.85;;;;;;;8.46;91.62;99852.81;8324181;28;20067;-70
2022/03/15 11:41:13;;;;;;;3.05;1.65;;;;;;;8.58;91.83;99836.53;8318385;28;20152;-72
2022/03/15 11:45:29;;;;;;;3.67;2.07;;;;;;;8.71;91.56;99832.34;8313632;28;20049;-70
2022/03/15 11:49:48;;;;;;;3.38;1.67;;;;;;;8.77;91.19;99825.50;8315944;28;20106;-70
2022/03/15 11:54:06;;;;;;;4.53;3.50;;;;;;;8.93;91.08;99831.69;8319892;28;20528;-72
2022/03/15 11:58:10;;;;;;;5.13;2.85;;;;;;;9.07;91.10;99821.47;8323904;28;20147;-72
2022/03/15 12:02:12;;;;;;;4.03;2.30;;;;;;;9.14;90.24;99815.47;8305288;28;20061;-72
2022/03/15 12:06:27;;;;;;;5.75;2.13;;;;;;;9.17;90.03;99806.88;8331642;28;20140;-71
2022/03/15 12:10:35;;;;;;;2.58;1.77;;;;;;;9.27;89.72;99795.72;8324374;28;20662;-71
2022/03/15 12:14:57;;;;;;;2.72;1.98;;;;;;;9.33;89.07;99799.19;8327782;28;20528;-70
2022/03/15 12:19:13;;;;;;;5.13;2.60;;;;;;;9.42;89.11;99798.41;8310142;28;20076;-71
2022/03/15 12:23:22;;;;;;;2.97;1.75;;;;;;;9.42;88.88;99784.59;8320147;28;20060;-71
2022/03/15 12:27:26;;;;;;;3.85;2.05;;;;;;;9.41;88.88;99780.25;8309831;28;20056;-72
2022/03/15 12:31:32;;;;;;;4.65;2.05;;;;;;;9.39;88.92;99780.25;8320004;28;20060;-72
2022/03/15 12:35:36;;;;;;;2.58;1.70;;;;;;;9.35;88.77;99774.19;8331586;28;20057;-70
2022/03/15 12:39:38;;;;;;;3.40;2.20;;;;;;;9.34;89.06;99767.28;8338551;28;20048;-72
2022/03/15 12:43:39;;;;;;;3.70;2.10;;;;;;;9.34;89.06;99756.03;8327085;28;20164;-70
2022/03/15 12:47:47;;;;;;;9.20;2.10;;;;;;;9.31;89.81;99766.38;8304019;28;20569;-70
2022/03/15 12:51:50;;;;;;;3.03;1.85;;;;;;;9.26;90.51;99766.34;8322453;28;20136;-72
2022/03/15 12:55:56;;;;;;;4.00;1.88;;;;;;;9.26;90.58;99761.16;8304175;28;20385;-71
2022/03/15 12:59:58;;;;;;;2.83;1.85;;;;;;;9.25;90.71;99771.53;8324299;28;20057;-71
2022/03/15 13:04:03;;;;;;;6.67;2.40;;;;;;;9.19;91.16;99774.06;8304777;28;20049;-70
2022/03/15 13:08:05;;;;;;;5.55;2.47;;;;;;;9.11;91.02;99788.69;8325633;28;20717;-71
2022/03/15 13:12:17;;;;;;;5.32;3.50;;;;;;;9.00;90.51;99779.13;8327912;28;20045;-73
2022/03/15 13:16:21;;;;;;;4.80;2.88;;;;;;;8.95;91.02;99782.50;8316289;28;20059;-73
2022/03/15 13:20:34;;;;;;;5.32;3.08;;;;;;;8.90;91.09;99789.38;8319457;28;20081;-73
2022/03/15 13:24:37;;;;;;;4.82;3.08;;;;;;;8.80;90.87;99803.97;8307093;28;20111;-73
2022/03/15 13:28:41;;;;;;;4.20;3.50;;;;;;;8.74;92.01;99784.06;8306247;28;20140;-73
2022/03/15 13:32:51;;;;;;;5.93;3.65;;;;;;;8.71;91.91;99789.22;8312902;28;20104;-73
2022/03/15 13:37:07;;;;;;;7.35;3.83;;;;;;;8.67;91.76;99778.81;8286508;28;20084;-73
2022/03/15 13:41:09;;;;;;;4.80;3.67;;;;;;;8.63;91.86;99779.66;8295504;28;20076;-73
2022/03/15 13:45:11;;;;;;;4.60;4.05;;;;;;;8.62;92.44;99767.56;8294601;28;20108;-74
2022/03/15 13:49:21;;;;;;;4.78;3.85;;;;;;;8.57;92.27;99774.38;8282388;28;20141;-73
2022/03/15 13:53:24;;;;;;;7.85;5.25;;;;;;;8.52;92.36;99774.34;8283418;28;20426;-74
2022/03/15 13:57:30;;;;;;;4.68;4.10;;;;;;;8.50;92.25;99765.72;8286731;28;20428;-74
2022/03/15 14:01:37;;;;;;;4.70;4.30;;;;;;;8.51;92.18;99756.22;8290287;28;20504;-72
2022/03/15 14:05:39;;;;;;;4.68;3.75;;;;;;;8.52;92.24;99755.38;8298969;28;20065;-72
2022/03/15 14:09:40;;;;;;;5.80;4.60;;;;;;;8.51;92.43;99754.50;8299668;28;20060;-73
2022/03/15 14:13:56;;;;;;;4.85;4.28;;;;;;;8.43;92.33;99766.47;8302837;28;20052;-72
2022/03/15 14:17:58;;;;;;;5.10;3.83;;;;;;;8.43;92.74;99774.25;8294553;28;20131;-72
2022/03/15 14:22:06;;;;;;;4.80;4.40;;;;;;;8.42;93.39;99780.28;8294124;28;20053;-74
2022/03/15 14:26:08;;;;;;;4.50;4.10;;;;;;;8.42;93.66;99778.56;8276399;28;20061;-72
2022/03/15 14:30:10;;;;;;;5.25;4.63;;;;;;;8.41;93.30;99784.59;8280314;28;20622;-74
2022/03/15 14:34:14;;;;;;;4.60;4.20;;;;;;;8.41;93.63;99781.13;8305889;28;20049;-74
2022/03/15 14:38:21;;;;;;;4.97;4.57;;;;;;;8.41;94.04;99789.75;8315127;28;20085;-75
2022/03/15 14:42:24;;;;;;;4.80;4.37;;;;;;;8.40;93.86;99776.81;8333949;28;20053;-73
2022/03/15 14:46:27;;;;;;;5.17;4.57;;;;;;;8.40;93.78;99761.28;8315013;28;20149;-73
2022/03/15 14:50:30;;;;;;;4.88;4.47;;;;;;;8.39;93.57;99775.94;8327534;28;20426;-73
2022/03/15 14:54:32;;;;;;;6.00;4.97;;;;;;;8.39;93.63;99777.66;8299513;28;20140;-73
2022/03/15 14:58:36;;;;;;;5.00;4.65;;;;;;;8.39;94.12;99778.53;8322754;28;20049;-73
2022/03/15 15:02:39;;;;;;;6.10;5.13;;;;;;;8.40;93.97;99771.63;8315335;28;20081;-74
2022/03/15 15:06:44;;;;;;;5.93;4.50;;;;;;;8.39;94.04;99765.59;8319615;28;20050;-75
2022/03/15 15:10:46;;;;;;;7.75;4.40;;;;;;;8.39;94.14;99762.13;8321094;28;20532;-74
2022/03/15 15:14:52;;;;;;;4.53;4.13;;;;;;;8.36;94.35;99754.34;8317134;28;20144;-73
2022/03/15 15:18:55;;;;;;;4.63;4.18;;;;;;;8.36;94.37;99733.66;8311524;28;20088;-75
2022/03/15 15:23:00;;;;;;;5.93;4.68;;;;;;;8.38;94.63;99740.56;8317775;28;20053;-74
2022/03/15 15:27:02;;;;;;;5.07;4.57;;;;;;;8.38;95.24;99752.63;8316580;28;20783;-73
2022/03/15 15:31:05;;;;;;;4.90;4.43;;;;;;;8.39;94.94;99754.38;8316197;28;20057;-71
2022/03/15 15:35:07;;;;;;;5.00;4.15;;;;;;;8.42;94.98;99754.41;8303084;28;20786;-72
2022/03/15 15:39:09;;;;;;;4.60;4.30;;;;;;;8.44;94.62;99753.59;8315472;28;20049;-72
2022/03/15 15:43:10;;;;;;;4.85;4.35;;;;;;;8.44;94.76;99751.00;8316377;28;20189;-71
2022/03/15 15:47:24;;;;;;;5.32;4.82;;;;;;;8.48;94.65;99757.94;8308177;28;20155;-72
2022/03/15 15:51:27;;;;;;;5.05;4.55;;;;;;;8.50;94.66;99767.44;8292659;28;20057;-72
2022/03/15 15:55:29;;;;;;;5.47;4.97;;;;;;;8.49;94.50;99758.81;8308370;28;20053;-72
2022/03/15 15:59:31;;;;;;;6.95;4.45;;;;;;;8.52;95.20;99755.38;8314537;28;20049;-73
2022/03/15 16:03:33;;;;;;;6.70;5.22;;;;;;;8.53;95.30;99757.97;8311661;28;20063;-72
2022/03/15 16:07:45;;;;;;;7.07;5.68;;;;;;;8.55;94.97;99752.81;8316297;28;20054;-73
2022/03/15 16:11:47;;;;;;;9.02;6.88;;;;;;;8.58;94.70;99755.41;8310467;28;20096;-72
2022/03/15 16:15:54;;;;;;;8.48;6.65;;;;;;;8.59;94.62;99749.38;8329442;28;20394;-72
2022/03/15 16:19:56;;;;;;;7.67;6.73;;;;;;;8.59;94.70;99764.91;8325944;28;20077;-73
2022/03/15 16:23:59;;;;;;;6.78;6.07;;;;;;;8.58;95.00;99763.19;8304280;28;20046;-72
2022/03/15 16:28:01;;;;;;;7.53;6.47;;;;;;;8.57;94.24;99774.38;8317248;28;20605;-71
2022/03/15 16:32:02;;;;;;;7.30;6.53;;;;;;;8.56;95.07;99781.28;8296395;28;20053;-72
2022/03/15 16:36:06;;;;;;;7.20;6.60;;;;;;;8.60;94.97;99782.19;8320240;28;20469;-72
2022/03/15 16:40:07;;;;;;;7.47;6.47;;;;;;;8.61;95.06;99791.69;8314687;28;20314;-72
2022/03/15 16:44:09;;;;;;;6.80;6.10;;;;;;;8.57;95.28;99792.50;8317444;28;20140;-71
2022/03/15 16:48:11;;;;;;;7.20;6.20;;;;;;;8.57;95.45;99808.91;8320562;28;20061;-71
2022/03/15 16:52:13;;;;;;;7.30;6.57;;;;;;;8.56;95.13;99806.31;8319021;28;20045;-71
2022/03/15 16:56:16;;;;;;;6.72;6.15;;;;;;;8.57;95.76;99813.22;8301314;28;20053;-71
2022/03/15 17:00:17;;;;;;;7.53;6.82;;;;;;;8.57;94.99;99815.81;8319305;28;20063;-71
2022/03/15 17:08:41;;;;;;;8.65;7.82;;;;;;;8.53;95.44;99817.50;8315968;28;20806;-72
2022/03/15 17:12:44;;;;;;;9.48;8.18;;;;;;;8.52;95.04;99838.19;8316406;28;20045;-72
2022/03/15 17:16:46;;;;;;;8.18;7.38;;;;;;;8.49;94.99;99841.63;8320122;28;20065;-71
2022/03/15 17:20:48;;;;;;;8.77;7.22;;;;;;;8.45;94.93;99843.31;8319290;28;20445;-71
2022/03/15 17:24:55;;;;;;;8.35;7.45;;;;;;;8.42;94.60;99843.25;8327521;28;20049;-72
2022/03/15 17:29:01;;;;;;;9.38;8.27;;;;;;;8.40;94.98;99857.00;8318550;28;20057;-72
2022/03/15 17:33:03;;;;;;;9.98;7.88;;;;;;;8.37;95.14;99863.03;8320052;28;20049;-72
2022/03/15 17:37:10;;;;;;;8.50;7.25;;;;;;;8.38;95.28;99859.59;8319955;28;20156;-72
2022/03/15 17:41:20;;;;;;;8.40;7.45;;;;;;;8.37;95.42;99863.03;8303071;28;20494;-72
2022/03/15 17:45:23;;;;;;;8.50;7.50;;;;;;;8.37;95.02;99864.75;8315365;28;20222;-70
2022/03/15 17:49:26;;;;;;;8.88;7.85;;;;;;;8.36;95.25;99860.44;8319358;28;20766;-71
2022/03/15 17:53:27;;;;;;;9.47;8.57;;;;;;;8.32;95.41;99856.03;8319699;28;20486;-72
2022/03/15 17:57:31;;;;;;;9.57;8.57;;;;;;;8.25;96.00;99868.00;8326787;28;20172;-72
2022/03/15 18:01:37;;;;;;;10.90;8.77;;;;;;;8.25;95.95;99880.94;8329151;28;20067;-71
2022/03/15 18:05:38;;;;;;;9.55;8.57;;;;;;;8.27;95.88;99875.81;8333227;28;20063;-70
2022/03/15 18:09:40;;;;;;;9.20;8.30;;;;;;;8.25;96.12;99891.28;8335043;28;20045;-71
2022/03/15 18:13:41;;;;;;;9.52;8.52;;;;;;;8.26;95.86;99910.28;8313669;28;20044;-71
2022/03/15 18:17:43;;;;;;;8.73;7.97;;;;;;;8.24;96.42;99912.84;8330818;28;20139;-71
2022/03/15 18:21:50;;;;;;;9.77;8.30;;;;;;;8.24;96.34;99909.38;8332427;28;20061;-71
2022/03/15 18:25:52;;;;;;;9.70;8.45;;;;;;;8.23;95.86;99918.88;8335593;28;20057;-71
2022/03/15 18:29:54;;;;;;;11.65;8.85;;;;;;;8.21;96.60;99923.16;8327233;28;20045;-71
2022/03/15 18:33:56;;;;;;;10.23;9.13;;;;;;;8.24;96.32;99928.34;8325304;28;20091;-72
2022/03/15 18:37:58;;;;;;;15.27;8.50;;;;;;;8.23;96.17;99923.16;8333748;28;20060;-71
2022/03/15 18:42:00;;;;;;;10.60;8.75;;;;;;;8.23;95.99;99930.94;8301685;28;20211;-73
2022/03/15 18:46:07;;;;;;;11.13;9.33;;;;;;;8.19;96.00;99935.19;8312912;28;20071;-71
2022/03/15 18:50:09;;;;;;;11.70;9.00;;;;;;;8.16;96.15;99936.03;8299406;28;20337;-71
2022/03/15 18:54:12;;;;;;;11.05;8.82;;;;;;;8.16;96.44;99943.78;8314836;28;20432;-71
2022/03/15 18:58:14;;;;;;;18.02;9.63;;;;;;;8.16;96.64;99940.34;8330683;28;20136;-71
2022/03/15 19:02:16;;;;;;;10.65;8.88;;;;;;;8.15;96.62;99941.19;8311200;28;20057;-71
2022/03/15 19:06:23;;;;;;;10.30;8.17;;;;;;;8.16;96.53;99948.09;8331150;28;20111;-72
2022/03/15 19:10:27;;;;;;;10.43;9.37;;;;;;;8.15;96.93;99944.63;8329769;28;20441;-71
2022/03/15 19:14:30;;;;;;;11.27;9.18;;;;;;;8.15;96.45;99941.19;8328859;28;20060;-71
2022/03/15 19:18:32;;;;;;;13.80;10.00;;;;;;;8.14;96.59;99949.78;8321002;28;20140;-70